createdAt,value
2018-10-18T00:00:06.854Z,24.70
2018-10-18T00:02:35.154Z,24.70
2018-10-18T00:05:03.270Z,24.70
2018-10-18T00:07:31.493Z,24.70
2018-10-18T00:09:59.622Z,24.70
2018-10-18T00:12:27.777Z,24.70
2018-10-18T00:14:56.145Z,24.70
2018-10-18T00:17:29.883Z,24.70
2018-10-18T00:19:58.310Z,24.70
2018-10-18T00:22:26.421Z,24.70
2018-10-18T00:24:54.558Z,24.70
2018-10-18T00:27:22.724Z,24.60
2018-10-18T00:29:50.930Z,24.70
2018-10-18T00:32:19.181Z,24.70
2018-10-18T00:34:47.333Z,24.60
2018-10-18T00:37:15.470Z,24.70
2018-10-18T00:39:43.603Z,24.60
2018-10-18T00:42:11.817Z,24.60
2018-10-18T00:44:39.896Z,24.60
2018-10-18T00:47:08.047Z,24.60
2018-10-18T00:49:36.149Z,24.60
2018-10-18T00:52:04.312Z,24.70
2018-10-18T00:54:32.566Z,24.60
2018-10-18T00:57:00.721Z,24.60
2018-10-18T00:59:28.894Z,24.60
2018-10-18T01:01:57.057Z,24.60
2018-10-18T01:04:25.657Z,24.60
2018-10-18T01:06:53.770Z,24.60
2018-10-18T01:09:21.924Z,24.60
2018-10-18T01:11:50.079Z,24.60
2018-10-18T01:14:18.234Z,24.60
2018-10-18T01:16:46.326Z,24.60
2018-10-18T01:19:14.442Z,24.60
2018-10-18T01:21:42.597Z,24.60
2018-10-18T01:24:10.830Z,24.60
2018-10-18T01:26:38.882Z,24.60
2018-10-18T01:29:06.994Z,24.60
2018-10-18T01:31:35.130Z,24.60
2018-10-18T01:34:03.262Z,24.60
2018-10-18T01:36:31.414Z,24.60
2018-10-18T01:38:59.554Z,24.60
2018-10-18T01:41:27.758Z,24.60
2018-10-18T01:43:55.918Z,24.60
2018-10-18T01:46:24.006Z,24.60
2018-10-18T01:48:52.160Z,24.60
2018-10-18T01:51:20.315Z,24.60
2018-10-18T01:53:48.457Z,24.60
2018-10-18T01:56:16.639Z,24.50
2018-10-18T01:58:44.739Z,24.60
2018-10-18T02:01:12.900Z,24.60
2018-10-18T02:03:40.986Z,24.50
2018-10-18T02:06:09.148Z,24.50
2018-10-18T02:08:37.254Z,24.50
2018-10-18T02:11:05.738Z,24.50
2018-10-18T02:13:33.917Z,24.50
2018-10-18T02:16:01.985Z,24.50
2018-10-18T02:18:30.184Z,24.50
2018-10-18T02:20:58.461Z,24.50
2018-10-18T02:23:26.567Z,24.50
2018-10-18T02:25:54.807Z,24.50
2018-10-18T02:28:22.953Z,24.50
2018-10-18T02:30:51.066Z,24.50
2018-10-18T02:33:19.171Z,24.50
2018-10-18T02:35:47.369Z,24.50
2018-10-18T02:38:15.505Z,24.50
2018-10-18T02:40:43.622Z,24.50
2018-10-18T02:43:11.818Z,24.50
2018-10-18T02:45:39.939Z,24.40
2018-10-18T02:48:08.144Z,24.40
2018-10-18T02:50:36.237Z,24.40
2018-10-18T02:53:04.559Z,24.40
2018-10-18T02:55:32.687Z,24.40
2018-10-18T02:58:00.838Z,24.40
2018-10-18T03:00:28.953Z,24.40
2018-10-18T03:02:57.118Z,24.40
2018-10-18T03:05:25.231Z,24.40
2018-10-18T03:07:53.344Z,24.40
2018-10-18T03:10:21.528Z,24.40
2018-10-18T03:12:49.646Z,24.40
2018-10-18T03:15:17.873Z,24.40
2018-10-18T03:17:46.134Z,24.40
2018-10-18T03:20:14.239Z,24.40
2018-10-18T03:22:42.354Z,24.40
2018-10-18T03:25:11.067Z,24.40
2018-10-18T03:27:39.438Z,24.40
2018-10-18T03:30:08.315Z,24.40
2018-10-18T03:32:36.341Z,24.40
2018-10-18T03:35:05.631Z,24.30
2018-10-18T03:37:33.903Z,24.30
2018-10-18T03:40:02.028Z,24.30
2018-10-18T03:42:30.171Z,24.30
2018-10-18T03:44:58.354Z,24.30
2018-10-18T03:47:26.539Z,24.30
2018-10-18T03:49:54.686Z,24.30
2018-10-18T03:52:22.793Z,24.30
2018-10-18T03:54:51.104Z,24.30
2018-10-18T03:57:19.236Z,24.30
2018-10-18T03:59:47.463Z,24.30
2018-10-18T04:02:15.524Z,24.30
2018-10-18T04:04:43.650Z,24.30
2018-10-18T04:07:11.786Z,24.30
2018-10-18T04:09:39.870Z,24.30
2018-10-18T04:12:08.851Z,24.30
2018-10-18T04:14:37.039Z,24.30
2018-10-18T04:17:05.553Z,24.30
2018-10-18T04:19:33.722Z,24.30
2018-10-18T04:22:01.876Z,24.30
2018-10-18T04:24:30.024Z,24.30
2018-10-18T04:26:58.187Z,24.30
2018-10-18T04:29:26.486Z,24.30
2018-10-18T04:31:54.587Z,24.30
2018-10-18T04:34:22.682Z,24.30
2018-10-18T04:36:50.857Z,24.30
2018-10-18T04:39:18.959Z,24.30
2018-10-18T04:41:47.077Z,24.30
2018-10-18T04:44:15.234Z,24.20
2018-10-18T04:46:43.448Z,24.20
2018-10-18T04:49:11.564Z,24.20
2018-10-18T04:51:39.670Z,24.30
2018-10-18T04:54:07.826Z,24.30
2018-10-18T04:56:36.011Z,24.20
2018-10-18T04:59:04.199Z,24.20
2018-10-18T05:01:32.487Z,24.20
2018-10-18T05:04:00.630Z,24.20
2018-10-18T05:06:28.735Z,24.20
2018-10-18T05:08:56.926Z,24.20
2018-10-18T05:11:25.135Z,24.20
2018-10-18T05:14:00.011Z,24.20
2018-10-18T05:16:28.154Z,24.20
2018-10-18T05:18:56.301Z,24.20
2018-10-18T05:21:24.557Z,24.20
2018-10-18T05:23:52.757Z,24.20
2018-10-18T05:26:20.988Z,24.20
2018-10-18T05:28:49.850Z,24.20
2018-10-18T05:31:18.119Z,24.20
2018-10-18T05:33:46.334Z,24.10
2018-10-18T05:36:14.464Z,24.20
2018-10-18T05:38:42.612Z,24.10
2018-10-18T05:41:10.741Z,24.10
2018-10-18T05:43:38.894Z,24.10
2018-10-18T05:46:07.654Z,24.10
2018-10-18T05:48:35.811Z,24.10
2018-10-18T05:51:03.988Z,24.20
2018-10-18T05:53:32.292Z,24.20
2018-10-18T05:56:00.445Z,24.10
2018-10-18T05:58:28.586Z,24.10
2018-10-18T06:00:56.810Z,24.10
2018-10-18T06:03:25.494Z,24.10
2018-10-18T06:05:53.614Z,24.10
2018-10-18T06:08:21.894Z,24.10
2018-10-18T06:11:01.595Z,24.10
2018-10-18T06:13:29.733Z,24.10
2018-10-18T06:15:58.490Z,24.10
2018-10-18T06:18:26.672Z,24.10
2018-10-18T06:20:54.840Z,24.10
2018-10-18T06:23:23.069Z,24.10
2018-10-18T06:25:51.146Z,24.10
2018-10-18T06:28:19.257Z,24.10
2018-10-18T06:30:47.491Z,24.10
2018-10-18T06:33:15.614Z,24.10
2018-10-18T06:35:43.746Z,24.10
2018-10-18T06:38:11.921Z,24.10
2018-10-18T06:40:40.148Z,24.10
2018-10-18T06:43:08.412Z,24.10
2018-10-18T06:45:36.573Z,24.10
2018-10-18T06:48:05.025Z,24.10
2018-10-18T06:50:33.198Z,24.10
2018-10-18T06:53:01.682Z,24.10
2018-10-18T06:55:29.786Z,24.10
2018-10-18T06:57:57.961Z,24.10
2018-10-18T07:00:26.193Z,24.10
2018-10-18T07:02:54.374Z,24.10
2018-10-18T07:05:22.498Z,24.10
2018-10-18T07:07:50.617Z,24.10
2018-10-18T07:10:18.725Z,24.10
2018-10-18T07:12:46.870Z,24.10
2018-10-18T07:15:15.747Z,24.10
2018-10-18T07:17:44.422Z,24.10
2018-10-18T07:20:13.304Z,24.10
2018-10-18T07:22:41.693Z,24.10
2018-10-18T07:25:11.501Z,24.10
2018-10-18T07:27:40.428Z,24.10
2018-10-18T07:30:10.171Z,24.10
2018-10-18T07:32:38.277Z,24.10
2018-10-18T07:35:07.825Z,24.10
2018-10-18T07:37:35.926Z,24.10
2018-10-18T07:40:04.116Z,24.00
2018-10-18T07:42:32.308Z,24.00
2018-10-18T07:45:00.454Z,24.00
2018-10-18T07:47:28.945Z,23.90
2018-10-18T07:49:57.115Z,23.90
2018-10-18T07:52:25.266Z,23.90
2018-10-18T07:54:53.454Z,23.90
2018-10-18T07:57:21.644Z,23.90
2018-10-18T07:59:49.806Z,23.90
2018-10-18T08:02:18.132Z,23.90
2018-10-18T08:04:46.300Z,23.90
2018-10-18T08:07:14.554Z,23.90
2018-10-18T08:09:42.776Z,23.90
2018-10-18T08:12:10.890Z,23.90
2018-10-18T08:14:39.128Z,23.90
2018-10-18T08:17:07.367Z,23.90
2018-10-18T08:19:35.501Z,24.00
2018-10-18T08:22:03.645Z,24.00
2018-10-18T08:24:31.818Z,24.00
2018-10-18T08:27:00.002Z,24.00
2018-10-18T08:29:28.161Z,24.00
2018-10-18T08:31:56.288Z,24.10
2018-10-18T08:34:24.442Z,24.10
2018-10-18T08:36:52.730Z,24.10
2018-10-18T08:39:21.118Z,24.10
2018-10-18T08:41:49.263Z,24.10
2018-10-18T08:44:17.535Z,24.10
2018-10-18T08:46:45.676Z,24.10
2018-10-18T08:49:14.030Z,24.10
2018-10-18T08:51:42.101Z,24.10
2018-10-18T08:54:10.358Z,24.20
2018-10-18T08:56:38.525Z,24.20
2018-10-18T08:59:06.728Z,24.20
2018-10-18T09:01:34.923Z,24.20
2018-10-18T09:04:03.165Z,24.10
2018-10-18T09:06:31.361Z,24.20
2018-10-18T09:08:59.779Z,24.20
2018-10-18T09:11:29.058Z,24.20
2018-10-18T09:13:57.709Z,24.20
2018-10-18T09:16:26.258Z,24.10
2018-10-18T09:18:54.561Z,24.20
2018-10-18T09:21:22.647Z,24.10
2018-10-18T09:23:50.913Z,24.20
2018-10-18T09:26:19.202Z,24.10
2018-10-18T09:28:47.624Z,24.10
2018-10-18T09:31:15.754Z,24.20
2018-10-18T09:33:44.038Z,24.10
2018-10-18T09:36:12.202Z,24.10
2018-10-18T09:38:40.359Z,24.20
2018-10-18T09:41:08.511Z,24.20
2018-10-18T09:43:36.626Z,24.20
2018-10-18T09:46:05.234Z,24.20
2018-10-18T09:48:33.520Z,24.10
2018-10-18T09:51:01.685Z,24.20
2018-10-18T09:53:30.066Z,24.20
2018-10-18T09:55:58.275Z,24.10
2018-10-18T09:58:26.463Z,24.20
2018-10-18T10:01:00.059Z,24.20
2018-10-18T10:03:28.199Z,24.10
2018-10-18T10:05:56.435Z,24.10
2018-10-18T10:08:24.626Z,24.20
2018-10-18T10:10:52.772Z,24.10
2018-10-18T10:13:20.955Z,24.20
2018-10-18T10:15:49.026Z,24.20
2018-10-18T10:18:17.299Z,24.10
2018-10-18T10:20:45.427Z,24.10
2018-10-18T10:23:13.631Z,24.20
2018-10-18T10:25:41.828Z,24.10
2018-10-18T10:28:09.985Z,24.10
2018-10-18T10:30:38.169Z,24.10
2018-10-18T10:33:06.364Z,24.20
2018-10-18T10:35:34.531Z,24.10
2018-10-18T10:38:02.687Z,24.10
2018-10-18T10:40:30.831Z,24.20
2018-10-18T10:42:59.000Z,24.10
2018-10-18T10:45:27.155Z,24.20
2018-10-18T10:47:55.336Z,24.20
2018-10-18T10:50:23.440Z,24.20
2018-10-18T10:52:51.675Z,24.10
2018-10-18T10:55:19.810Z,24.10
2018-10-18T10:57:47.976Z,24.20
2018-10-18T11:00:29.556Z,24.10
2018-10-18T11:02:57.763Z,24.10
2018-10-18T11:05:26.023Z,24.10
2018-10-18T11:07:54.179Z,24.20
2018-10-18T11:10:22.335Z,24.10
2018-10-18T11:12:50.512Z,24.10
2018-10-18T11:15:18.772Z,24.10
2018-10-18T11:17:46.863Z,24.10
2018-10-18T11:20:15.060Z,24.10
2018-10-18T11:22:43.148Z,24.10
2018-10-18T11:25:11.299Z,24.10
2018-10-18T11:27:39.515Z,24.10
2018-10-18T11:30:07.747Z,24.10
2018-10-18T11:32:35.808Z,24.10
2018-10-18T11:35:03.953Z,24.10
2018-10-18T11:37:32.084Z,24.20
2018-10-18T11:40:00.186Z,24.20
2018-10-18T11:42:28.306Z,24.20
2018-10-18T11:44:56.385Z,24.20
2018-10-18T11:47:24.525Z,24.20
2018-10-18T11:49:52.682Z,24.20
2018-10-18T11:52:20.746Z,24.20
2018-10-18T11:54:48.914Z,24.30
2018-10-18T11:57:17.084Z,24.30
2018-10-18T11:59:45.961Z,24.30
2018-10-18T12:02:14.268Z,24.30
2018-10-18T12:04:42.549Z,24.30
2018-10-18T12:07:10.714Z,24.30
2018-10-18T12:09:38.798Z,24.30
2018-10-18T12:12:06.889Z,24.30
2018-10-18T12:14:35.024Z,24.30
2018-10-18T12:17:03.347Z,24.30
2018-10-18T12:19:31.458Z,24.40
2018-10-18T12:21:59.598Z,24.30
2018-10-18T12:24:27.706Z,24.30
2018-10-18T12:26:56.501Z,24.30
2018-10-18T12:29:24.553Z,24.30
2018-10-18T12:31:52.931Z,24.40
2018-10-18T12:34:21.145Z,24.40
2018-10-18T12:36:49.234Z,24.40
2018-10-18T12:39:17.466Z,24.40
2018-10-18T12:41:45.735Z,24.40
2018-10-18T12:44:13.728Z,24.50
2018-10-18T12:46:41.821Z,24.50
2018-10-18T12:49:09.939Z,24.60
2018-10-18T12:51:38.114Z,24.60
2018-10-18T12:54:06.904Z,24.60
2018-10-18T12:56:34.979Z,24.60
2018-10-18T12:59:03.254Z,24.60
2018-10-18T13:01:31.399Z,24.70
2018-10-18T13:03:59.875Z,24.70
2018-10-18T13:06:28.270Z,24.70
2018-10-18T13:08:56.395Z,24.60
2018-10-18T13:11:24.665Z,24.60
2018-10-18T13:13:52.860Z,24.70
2018-10-18T13:16:20.968Z,24.70
2018-10-18T13:18:49.061Z,24.60
2018-10-18T13:21:17.271Z,24.60
2018-10-18T13:23:45.386Z,24.60
2018-10-18T13:26:13.724Z,24.60
2018-10-18T13:28:41.812Z,24.60
2018-10-18T13:31:09.934Z,24.60
2018-10-18T13:33:38.108Z,24.60
2018-10-18T13:36:06.195Z,24.60
2018-10-18T13:38:34.348Z,24.60
2018-10-18T13:41:02.405Z,24.60
2018-10-18T13:43:30.507Z,24.60
2018-10-18T13:45:58.701Z,24.70
2018-10-18T13:48:26.981Z,24.60
2018-10-18T13:50:55.219Z,24.60
2018-10-18T13:53:23.517Z,24.60
2018-10-18T13:55:51.941Z,24.60
2018-10-18T13:58:20.009Z,24.70
2018-10-18T14:00:48.238Z,24.70
2018-10-18T14:03:16.412Z,24.70
2018-10-18T14:05:44.584Z,24.70
2018-10-18T14:08:12.665Z,24.80
2018-10-18T14:10:40.814Z,24.80
2018-10-18T14:13:09.128Z,24.80
2018-10-18T14:15:37.447Z,24.80
2018-10-18T14:18:05.604Z,24.80
2018-10-18T14:20:33.718Z,24.80
2018-10-18T14:23:01.981Z,24.80
2018-10-18T14:25:30.035Z,24.90
2018-10-18T14:27:58.215Z,24.90
2018-10-18T14:30:26.390Z,24.90
2018-10-18T14:32:55.041Z,24.90
2018-10-18T14:35:23.136Z,24.80
2018-10-18T14:37:51.533Z,24.80
2018-10-18T14:40:19.748Z,24.80
2018-10-18T14:42:47.864Z,24.80
2018-10-18T14:45:15.946Z,24.80
2018-10-18T14:47:44.483Z,24.80
2018-10-18T14:50:13.628Z,24.90
2018-10-18T14:52:42.286Z,24.80
2018-10-18T14:55:11.070Z,24.80
2018-10-18T14:57:39.542Z,24.80
2018-10-18T15:00:09.623Z,24.80
2018-10-18T15:02:38.005Z,24.90
2018-10-18T15:05:07.335Z,25.00
2018-10-18T15:07:35.335Z,25.10
2018-10-18T15:10:03.496Z,25.10
2018-10-18T15:12:31.719Z,25.10
2018-10-18T15:14:59.938Z,25.10
2018-10-18T15:17:27.993Z,25.10
2018-10-18T15:19:56.134Z,25.10
2018-10-18T15:22:24.166Z,25.00
2018-10-18T15:24:52.295Z,25.00
2018-10-18T15:27:20.501Z,25.00
2018-10-18T15:29:48.832Z,24.90
2018-10-18T15:32:16.997Z,24.90
2018-10-18T15:34:45.113Z,24.90
2018-10-18T15:37:13.263Z,24.90
2018-10-18T15:39:41.542Z,24.90
2018-10-18T15:42:09.483Z,24.90
2018-10-18T15:44:37.575Z,24.90
2018-10-18T15:47:05.880Z,24.90
2018-10-18T15:49:34.367Z,24.90
2018-10-18T15:52:03.677Z,24.90
2018-10-18T15:54:31.814Z,24.90
2018-10-18T15:56:59.923Z,24.90
2018-10-18T15:59:28.339Z,24.90
2018-10-18T16:01:56.453Z,24.90
2018-10-18T16:04:24.724Z,24.90
2018-10-18T16:06:52.857Z,24.80
2018-10-18T16:09:21.051Z,24.80
2018-10-18T16:11:49.335Z,24.80
2018-10-18T16:14:17.480Z,24.90
2018-10-18T16:16:45.539Z,24.90
2018-10-18T16:19:13.677Z,24.80
2018-10-18T16:21:41.873Z,24.80
2018-10-18T16:24:10.092Z,24.90
2018-10-18T16:26:38.151Z,24.80
2018-10-18T16:29:06.346Z,24.80
2018-10-18T16:31:34.373Z,24.80
2018-10-18T16:34:02.651Z,24.90
2018-10-18T16:36:30.729Z,24.90
2018-10-18T16:38:59.321Z,24.90
2018-10-18T16:41:27.500Z,24.80
2018-10-18T16:43:55.597Z,24.80
2018-10-18T16:46:23.733Z,24.80
2018-10-18T16:48:51.950Z,24.80
2018-10-18T16:51:20.245Z,24.80
2018-10-18T16:53:48.523Z,24.80
2018-10-18T16:56:16.721Z,24.80
2018-10-18T16:58:44.765Z,24.80
2018-10-18T17:01:12.867Z,24.90
2018-10-18T17:03:41.105Z,24.90
2018-10-18T17:06:09.473Z,24.90
2018-10-18T17:08:37.591Z,24.80
2018-10-18T17:11:05.716Z,24.80
2018-10-18T17:13:33.821Z,24.80
2018-10-18T17:16:02.082Z,24.90
2018-10-18T17:18:30.375Z,24.90
2018-10-18T17:20:58.373Z,24.90
2018-10-18T17:23:26.568Z,24.80
2018-10-18T17:25:54.748Z,24.90
2018-10-18T17:28:22.997Z,24.90
2018-10-18T17:30:51.234Z,24.90
2018-10-18T17:33:19.320Z,24.90
2018-10-18T17:35:47.493Z,24.90
2018-10-18T17:38:15.764Z,24.90
2018-10-18T17:40:43.986Z,24.90
2018-10-18T17:43:13.348Z,24.90
2018-10-18T17:45:41.553Z,24.90
2018-10-18T17:48:09.965Z,24.90
2018-10-18T17:50:38.244Z,24.90
2018-10-18T17:53:06.388Z,24.90
2018-10-18T17:55:34.575Z,24.90
2018-10-18T17:58:02.795Z,24.90
2018-10-18T18:00:31.061Z,24.90
2018-10-18T18:02:59.057Z,24.90
2018-10-18T18:05:27.133Z,24.90
2018-10-18T18:07:55.268Z,25.00
2018-10-18T18:10:23.341Z,24.90
2018-10-18T18:12:51.489Z,25.00
2018-10-18T18:15:19.745Z,25.00
2018-10-18T18:17:47.905Z,25.00
2018-10-18T18:20:16.060Z,25.00
2018-10-18T18:22:44.455Z,25.00
2018-10-18T18:25:13.021Z,25.00
2018-10-18T18:27:41.099Z,25.00
2018-10-18T18:30:11.523Z,25.00
2018-10-18T18:32:39.854Z,25.00
2018-10-18T18:35:07.926Z,25.00
2018-10-18T18:37:36.534Z,25.00
2018-10-18T18:40:05.486Z,25.00
2018-10-18T18:42:33.602Z,25.10
2018-10-18T18:45:10.209Z,25.10
2018-10-18T18:47:38.333Z,25.10
2018-10-18T18:50:06.725Z,25.10
2018-10-18T18:52:34.781Z,25.10
2018-10-18T18:55:02.840Z,25.10
2018-10-18T18:57:30.944Z,25.10
2018-10-18T18:59:59.112Z,25.10
2018-10-18T19:02:27.263Z,25.10
2018-10-18T19:04:55.353Z,25.10
2018-10-18T19:07:23.433Z,25.10
2018-10-18T19:09:51.645Z,25.10
2018-10-18T19:12:19.716Z,25.10
2018-10-18T19:14:47.996Z,25.10
2018-10-18T19:17:16.164Z,25.10
2018-10-18T19:19:44.233Z,25.10
2018-10-18T19:22:12.352Z,25.10
2018-10-18T19:24:40.449Z,25.20
2018-10-18T19:29:37.237Z,25.20
2018-10-18T19:32:05.382Z,25.20
2018-10-18T19:34:33.424Z,25.20
2018-10-18T19:37:01.533Z,25.20
2018-10-18T19:39:29.597Z,25.20
2018-10-18T19:41:57.786Z,25.20
2018-10-18T19:44:25.976Z,25.20
2018-10-18T19:46:54.236Z,25.20
2018-10-18T19:49:22.429Z,25.20
2018-10-18T19:51:50.513Z,25.20
2018-10-18T19:54:19.116Z,25.20
2018-10-18T19:56:47.237Z,25.30
2018-10-18T19:59:15.384Z,25.20
2018-10-18T20:01:43.465Z,25.20
2018-10-18T20:04:11.680Z,25.20
2018-10-18T20:06:39.812Z,25.20
2018-10-18T20:09:09.629Z,25.20
2018-10-18T20:11:37.704Z,25.30
2018-10-18T20:14:05.943Z,25.20
2018-10-18T20:16:34.036Z,25.20
2018-10-18T20:19:02.709Z,25.30
2018-10-18T20:21:30.837Z,25.20
2018-10-18T20:23:58.995Z,25.30
2018-10-18T20:26:27.187Z,25.30
2018-10-18T20:28:55.208Z,25.20
2018-10-18T20:31:23.299Z,25.10
2018-10-18T20:33:51.561Z,25.10
2018-10-18T20:36:19.656Z,25.10
2018-10-18T20:38:47.796Z,25.10
2018-10-18T20:41:15.957Z,25.00
2018-10-18T20:43:44.077Z,25.00
2018-10-18T20:46:12.217Z,25.00
2018-10-18T20:48:40.289Z,24.90
2018-10-18T20:51:08.420Z,24.90
2018-10-18T20:53:36.526Z,24.90
2018-10-18T20:56:04.625Z,24.90
2018-10-18T20:58:32.843Z,24.80
2018-10-18T21:01:01.021Z,24.80
2018-10-18T21:03:29.144Z,24.70
2018-10-18T21:05:57.289Z,24.80
2018-10-18T21:08:25.369Z,24.70
2018-10-18T21:10:53.511Z,24.70
2018-10-18T21:13:21.647Z,24.70
2018-10-18T21:15:50.261Z,24.60
2018-10-18T21:18:18.315Z,24.60
2018-10-18T21:20:46.442Z,24.60
2018-10-18T21:23:14.594Z,24.60
2018-10-18T21:25:42.633Z,24.50
2018-10-18T21:28:10.729Z,24.50
2018-10-18T21:30:38.799Z,24.50
2018-10-18T21:33:06.928Z,24.50
2018-10-18T21:35:34.989Z,24.50
2018-10-18T21:38:03.174Z,24.40
2018-10-18T21:40:31.241Z,24.40
2018-10-18T21:42:59.328Z,24.40
2018-10-18T21:45:27.377Z,24.40
2018-10-18T21:47:55.533Z,24.40
2018-10-18T21:50:23.740Z,24.30
2018-10-18T21:52:51.799Z,24.30
2018-10-18T21:55:19.893Z,24.30
2018-10-18T21:57:47.981Z,24.30
2018-10-18T22:00:17.129Z,24.30
2018-10-18T22:02:46.150Z,24.30
2018-10-18T22:05:14.915Z,24.20
2018-10-18T22:07:43.289Z,24.20
2018-10-18T22:10:11.985Z,24.20
2018-10-18T22:12:40.057Z,24.20
2018-10-18T22:15:09.470Z,24.10
2018-10-18T22:17:37.929Z,24.10
2018-10-18T22:20:07.099Z,24.10
2018-10-18T22:22:35.153Z,24.10
2018-10-18T22:25:03.473Z,24.10
2018-10-18T22:27:31.878Z,24.10
2018-10-18T22:30:00.123Z,24.10
2018-10-18T22:32:28.326Z,24.10
2018-10-18T22:34:56.440Z,24.00
2018-10-18T22:37:24.452Z,24.00
2018-10-18T22:39:52.573Z,24.00
2018-10-18T22:42:20.702Z,24.00
2018-10-18T22:44:48.939Z,24.00
2018-10-18T22:47:17.034Z,24.00
2018-10-18T22:49:45.260Z,24.00
2018-10-18T22:52:13.321Z,24.00
2018-10-18T22:54:41.417Z,24.00
2018-10-18T22:57:09.550Z,24.00
2018-10-18T22:59:37.625Z,24.00
2018-10-18T23:02:05.769Z,24.00
2018-10-18T23:04:33.856Z,24.00
2018-10-18T23:07:01.967Z,24.00
2018-10-18T23:09:30.116Z,24.00
2018-10-18T23:11:58.202Z,24.00
2018-10-18T23:14:26.358Z,23.90
2018-10-18T23:16:54.447Z,23.90
2018-10-18T23:19:22.596Z,24.00
2018-10-18T23:21:50.694Z,23.90
2018-10-18T23:24:18.782Z,23.90
2018-10-18T23:26:46.889Z,23.90
2018-10-18T23:29:15.043Z,23.90
2018-10-18T23:31:43.139Z,23.90
2018-10-18T23:34:11.237Z,23.90
2018-10-18T23:36:39.315Z,23.90
2018-10-18T23:39:08.472Z,23.90
2018-10-18T23:41:36.631Z,23.90
2018-10-18T23:44:05.073Z,23.90
2018-10-18T23:46:33.182Z,23.90
2018-10-18T23:49:01.505Z,23.90
2018-10-18T23:51:29.597Z,23.90
2018-10-18T23:53:57.681Z,23.90
2018-10-18T23:56:25.779Z,23.90
2018-10-18T23:58:53.858Z,23.90
